Time;durP1;ratioP1;P1;durP2;ratioP2;P2;SDS_P1;SDS_P2;PMS_P1;PMS_P2;Temp;Humidity;BMP_temperature;BMP_pressure;BME280_temperature;BME280_humidity;BME280_pressure;Samples;Min_cycle;Max_cycle;Signal;HPM_P1;HPM_P2
2022/08/10 00:00:19;;;;;;;8.57;6.75;;;19.40;99.30;;;;;;5088214;28;20035;-63
2022/08/10 00:02:12;;;;;;;8.15;6.75;;;19.30;99.60;;;;;;5087992;28;20041;-63
2022/08/10 00:04:39;;;;;;;7.15;6.47;;;19.30;99.90;;;;;;5072171;28;20068;-64
2022/08/10 00:07:07;;;;;;;6.75;6.15;;;19.30;99.90;;;;;;5073903;28;20066;-64
2022/08/10 00:09:34;;;;;;;7.13;6.43;;;19.20;99.90;;;;;;5088224;28;20105;-64
2022/08/10 00:12:18;;;;;;;7.20;6.60;;;19.20;99.90;;;;;;5078173;28;20536;-63
2022/08/10 00:14:46;;;;;;;7.15;6.55;;;19.20;99.90;;;;;;5089324;28;20051;-65
2022/08/10 00:17:14;;;;;;;7.57;6.78;;;19.20;99.90;;;;;;5073793;28;20055;-64
2022/08/10 00:19:41;;;;;;;7.00;6.40;;;19.10;99.90;;;;;;5069504;28;20086;-63
2022/08/10 00:22:29;;;;;;;7.95;6.82;;;19.10;99.90;;;;;;5065511;28;20432;-63
2022/08/10 00:24:57;;;;;;;7.70;6.80;;;19.10;99.90;;;;;;5053794;28;20048;-63
2022/08/10 00:27:25;;;;;;;7.40;6.80;;;19.00;99.90;;;;;;5069565;28;20143;-63
2022/08/10 00:30:12;;;;;;;7.85;6.68;;;18.90;99.90;;;;;;5074397;28;20494;-63
2022/08/10 00:32:40;;;;;;;9.65;7.20;;;18.90;99.90;;;;;;5077719;28;20060;-64
2022/08/10 00:35:07;;;;;;;7.72;7.03;;;18.80;99.90;;;;;;5068501;28;20453;-64
2022/08/10 00:37:35;;;;;;;7.55;6.85;;;18.80;99.90;;;;;;5067496;28;20342;-64
2022/08/10 00:40:04;;;;;;;7.57;6.88;;;18.70;99.90;;;;;;5066177;28;20052;-64
2022/08/10 00:42:32;;;;;;;7.78;7.07;;;18.70;99.90;;;;;;5080865;28;20475;-64
2022/08/10 00:45:00;;;;;;;8.05;7.25;;;18.60;99.90;;;;;;5069575;28;20079;-63
2022/08/10 00:47:27;;;;;;;7.63;6.93;;;18.60;99.90;;;;;;5084112;28;20458;-64
2022/08/10 00:50:10;;;;;;;7.60;6.90;;;18.60;99.90;;;;;;5073551;28;20079;-65
2022/08/10 00:52:38;;;;;;;7.60;6.80;;;18.60;99.90;;;;;;5070300;28;20082;-63
2022/08/10 00:55:05;;;;;;;7.75;7.05;;;18.60;99.90;;;;;;5073968;28;20050;-63
2022/08/10 00:57:37;;;;;;;7.63;6.93;;;18.50;99.90;;;;;;5062128;28;20097;-64
2022/08/10 01:00:06;;;;;;;8.02;7.30;;;18.50;99.90;;;;;;5082534;28;20130;-63
2022/08/10 01:02:34;;;;;;;7.45;6.50;;;18.50;99.90;;;;;;5052751;28;20076;-63
2022/08/10 01:05:05;;;;;;;7.53;6.80;;;18.50;99.90;;;;;;5055925;28;20442;-63
2022/08/10 01:07:48;;;;;;;9.15;7.10;;;18.50;99.90;;;;;;5059931;28;20044;-63
2022/08/10 01:10:28;;;;;;;7.68;6.88;;;18.40;99.90;;;;;;5068471;28;20557;-63
2022/08/10 01:13:05;;;;;;;8.55;6.63;;;18.40;99.90;;;;;;5062645;28;20493;-65
2022/08/10 01:15:47;;;;;;;7.20;6.60;;;18.40;99.90;;;;;;5067935;28;20051;-64
2022/08/10 01:18:52;;;;;;;7.72;7.05;;;18.40;99.90;;;;;;5072947;28;20033;-65
2022/08/10 01:21:45;;;;;;;7.65;6.93;;;18.40;99.90;;;;;;5060181;28;20044;-63
2022/08/10 01:25:01;;;;;;;9.30;7.13;;;18.40;99.90;;;;;;5068108;28;20040;-64
2022/08/10 01:27:55;;;;;;;7.22;6.50;;;18.30;99.90;;;;;;5058769;28;20079;-64
2022/08/10 01:30:26;;;;;;;7.65;6.80;;;18.30;99.90;;;;;;5062670;28;20059;-64
2022/08/10 01:33:09;;;;;;;7.43;6.60;;;18.20;99.90;;;;;;5073972;28;20402;-64
2022/08/10 01:35:49;;;;;;;7.80;7.13;;;18.20;99.90;;;;;;5058067;28;20106;-64
2022/08/10 01:38:38;;;;;;;7.97;7.22;;;18.20;99.90;;;;;;5068879;28;20568;-64
2022/08/10 01:41:17;;;;;;;7.30;6.70;;;18.10;99.90;;;;;;5081580;28;20051;-66
2022/08/10 01:43:57;;;;;;;7.63;6.82;;;18.10;99.90;;;;;;5075885;28;20040;-64
2022/08/10 01:46:32;;;;;;;7.68;6.97;;;18.00;99.90;;;;;;5061717;28;20375;-63
2022/08/10 01:49:04;;;;;;;7.72;6.80;;;18.00;99.90;;;;;;5070256;28;20159;-63
2022/08/10 01:51:34;;;;;;;8.55;7.30;;;18.00;99.90;;;;;;5064363;28;20145;-64
2022/08/10 01:54:12;;;;;;;8.07;7.30;;;17.90;99.90;;;;;;5053790;28;20036;-64
2022/08/10 01:56:47;;;;;;;7.90;7.20;;;17.90;99.90;;;;;;5070166;28;20037;-65
2022/08/10 01:59:25;;;;;;;7.78;7.07;;;17.90;99.90;;;;;;5079105;28;20044;-66
2022/08/10 02:01:58;;;;;;;8.98;7.32;;;17.80;99.90;;;;;;5070159;28;20097;-65
2022/08/10 02:04:28;;;;;;;7.20;6.55;;;17.80;99.90;;;;;;5062123;28;20063;-64
2022/08/10 02:06:57;;;;;;;7.60;6.90;;;17.80;99.90;;;;;;5068721;28;20451;-63
2022/08/10 02:09:31;;;;;;;7.35;6.40;;;17.70;99.90;;;;;;5060848;28;20465;-64
2022/08/10 02:12:16;;;;;;;7.05;6.40;;;17.70;99.90;;;;;;5071308;28;20056;-64
2022/08/10 02:14:59;;;;;;;7.32;6.72;;;17.70;99.90;;;;;;5069554;28;20052;-65
2022/08/10 02:17:36;;;;;;;7.70;7.03;;;17.70;99.90;;;;;;5070973;28;20049;-68
2022/08/10 02:20:27;;;;;;;8.55;7.45;;;17.70;99.90;;;;;;5068774;28;20043;-68
2022/08/10 02:23:03;;;;;;;7.85;7.15;;;17.60;99.90;;;;;;5071268;28;20351;-68
2022/08/10 02:25:32;;;;;;;7.68;6.90;;;17.60;99.90;;;;;;5076780;28;20036;-68
2022/08/10 02:28:13;;;;;;;8.07;7.28;;;17.60;99.90;;;;;;5078618;28;20040;-68
2022/08/10 02:31:12;;;;;;;8.10;7.30;;;17.60;99.90;;;;;;5074907;28;20047;-67
2022/08/10 02:33:45;;;;;;;8.32;7.13;;;17.60;99.90;;;;;;5063708;28;20167;-68
2022/08/10 02:36:33;;;;;;;8.27;7.45;;;17.50;99.90;;;;;;5073201;28;20041;-67
2022/08/10 02:39:03;;;;;;;9.38;7.18;;;17.50;99.90;;;;;;5073758;28;20052;-67
2022/08/10 02:41:51;;;;;;;7.47;6.88;;;17.40;99.90;;;;;;5082750;28;20049;-67
2022/08/10 02:44:56;;;;;;;8.15;7.30;;;17.40;99.90;;;;;;5041411;28;20057;-67
2022/08/10 02:47:46;;;;;;;7.93;7.13;;;17.40;99.90;;;;;;5067573;28;20040;-70
2022/08/10 02:50:35;;;;;;;9.50;7.47;;;17.40;99.90;;;;;;5085552;28;20082;-67
2022/08/10 02:53:17;;;;;;;7.90;7.20;;;17.30;99.90;;;;;;5054920;28;20140;-68
2022/08/10 02:56:22;;;;;;;7.85;7.10;;;17.30;99.90;;;;;;5077463;28;20482;-67
2022/08/10 02:58:58;;;;;;;10.13;7.90;;;17.30;99.90;;;;;;5081438;28;20068;-67
2022/08/10 03:01:33;;;;;;;8.05;7.07;;;17.20;99.90;;;;;;5069468;28;20029;-68
2022/08/10 03:04:07;;;;;;;8.02;7.28;;;17.20;99.90;;;;;;5065128;28;20070;-67
2022/08/10 03:06:42;;;;;;;8.32;7.63;;;17.20;99.90;;;;;;5061312;28;20103;-67
2022/08/10 03:09:12;;;;;;;8.57;7.68;;;17.20;99.90;;;;;;5069142;28;20115;-68
2022/08/10 03:11:43;;;;;;;8.43;7.68;;;17.10;99.90;;;;;;5072354;28;20457;-68
2022/08/10 03:14:32;;;;;;;7.88;6.82;;;17.10;99.90;;;;;;5072377;28;20032;-68
2022/08/10 03:17:01;;;;;;;8.07;7.32;;;17.10;99.90;;;;;;5072288;28;20041;-68
2022/08/10 03:19:32;;;;;;;7.85;7.13;;;17.10;99.90;;;;;;5072211;28;20100;-67
2022/08/10 03:22:22;;;;;;;7.95;7.15;;;17.10;99.90;;;;;;5063994;28;20032;-67
2022/08/10 03:24:52;;;;;;;8.20;7.40;;;17.00;99.90;;;;;;5071948;28;20136;-67
2022/08/10 03:27:21;;;;;;;7.93;7.05;;;17.00;99.90;;;;;;5068484;28;20044;-68
2022/08/10 03:29:50;;;;;;;8.13;7.32;;;17.00;99.90;;;;;;5073329;28;20064;-67
2022/08/10 03:32:38;;;;;;;8.48;7.30;;;16.90;99.90;;;;;;5072289;28;20040;-67
2022/08/10 03:35:07;;;;;;;8.02;7.20;;;16.90;99.90;;;;;;5068506;28;20040;-67
2022/08/10 03:37:35;;;;;;;7.85;7.15;;;17.00;99.90;;;;;;5076196;28;20466;-67
2022/08/10 03:40:05;;;;;;;8.07;7.32;;;16.90;99.90;;;;;;5086491;28;20604;-67
2022/08/10 03:42:36;;;;;;;8.23;7.43;;;17.00;99.90;;;;;;5079614;28;20147;-68
2022/08/10 03:45:05;;;;;;;8.65;7.95;;;16.90;99.90;;;;;;5079736;28;20384;-67
2022/08/10 03:47:37;;;;;;;8.65;7.30;;;16.90;99.90;;;;;;5077230;28;20440;-67
2022/08/10 03:50:06;;;;;;;8.88;7.63;;;16.90;99.90;;;;;;5081088;28;20468;-68
2022/08/10 03:52:54;;;;;;;8.68;7.88;;;16.90;99.90;;;;;;5071520;28;20127;-67
2022/08/10 03:55:23;;;;;;;8.38;7.57;;;16.90;99.90;;;;;;5080956;28;20111;-67
2022/08/10 03:58:11;;;;;;;7.97;7.28;;;17.00;99.90;;;;;;5076717;28;20550;-69
2022/08/10 04:00:39;;;;;;;9.73;7.60;;;16.90;99.90;;;;;;5073412;28;20418;-67
2022/08/10 04:03:07;;;;;;;8.27;7.35;;;17.00;99.90;;;;;;5066205;28;20037;-67
2022/08/10 04:05:35;;;;;;;8.60;7.72;;;16.90;99.90;;;;;;5064043;28;20088;-67
2022/08/10 04:08:05;;;;;;;7.68;6.93;;;17.00;99.90;;;;;;5079476;28;20497;-67
2022/08/10 04:10:34;;;;;;;9.48;7.10;;;17.00;99.90;;;;;;5072248;28;20074;-67
2022/08/10 04:13:01;;;;;;;8.13;7.30;;;17.00;99.90;;;;;;5079148;28;20109;-67
2022/08/10 04:15:28;;;;;;;8.20;7.53;;;17.00;99.90;;;;;;5077351;28;20095;-70
2022/08/10 04:17:56;;;;;;;8.30;7.50;;;17.00;99.90;;;;;;5070629;28;20040;-69
2022/08/10 04:20:39;;;;;;;8.45;7.53;;;17.00;99.90;;;;;;5083011;28;20060;-68
2022/08/10 04:23:18;;;;;;;7.78;7.00;;;17.10;99.90;;;;;;5075201;28;20476;-67
2022/08/10 04:25:46;;;;;;;10.07;7.57;;;17.10;99.90;;;;;;5077085;28;20059;-68
2022/08/10 04:28:13;;;;;;;8.00;7.20;;;17.10;99.90;;;;;;5080603;28;20040;-67
2022/08/10 04:30:43;;;;;;;8.75;7.53;;;17.20;99.90;;;;;;5077804;28;20094;-67
2022/08/10 04:33:13;;;;;;;8.60;7.75;;;17.20;99.90;;;;;;5064895;28;20045;-67
2022/08/10 04:35:44;;;;;;;8.10;7.25;;;17.30;99.90;;;;;;5078744;28;20060;-68
2022/08/10 04:38:13;;;;;;;8.02;7.22;;;17.30;99.90;;;;;;5084161;28;20072;-68
2022/08/10 04:40:42;;;;;;;13.27;7.55;;;17.30;99.90;;;;;;5085416;28;20071;-68
2022/08/10 04:43:09;;;;;;;8.20;7.30;;;17.40;99.90;;;;;;5069608;28;20070;-68
2022/08/10 04:45:41;;;;;;;8.55;7.43;;;17.40;99.90;;;;;;5067566;28;20545;-68
2022/08/10 04:48:21;;;;;;;8.43;7.57;;;17.50;99.90;;;;;;5068086;28;20064;-68
2022/08/10 04:51:12;;;;;;;9.10;7.63;;;17.50;99.90;;;;;;5067301;28;20498;-68
2022/08/10 04:53:47;;;;;;;13.38;7.65;;;17.60;99.90;;;;;;5087689;28;20475;-68
2022/08/10 04:56:38;;;;;;;8.93;8.02;;;17.60;99.90;;;;;;5089201;28;20036;-69
2022/08/10 04:59:07;;;;;;;8.35;7.45;;;17.70;99.90;;;;;;5063260;28;20130;-68
2022/08/10 05:01:36;;;;;;;10.68;8.27;;;17.70;99.90;;;;;;5053816;28;20569;-68
2022/08/10 05:04:23;;;;;;;10.07;7.80;;;17.80;99.90;;;;;;5063966;28;20040;-68
2022/08/10 05:07:15;;;;;;;8.13;7.40;;;17.90;99.90;;;;;;5068529;28;20411;-68
2022/08/10 05:09:49;;;;;;;8.70;7.90;;;17.90;99.90;;;;;;5068451;28;20456;-70
2022/08/10 05:12:32;;;;;;;8.43;7.70;;;17.90;99.90;;;;;;5061962;28;20116;-68
2022/08/10 05:15:11;;;;;;;8.80;7.90;;;18.10;99.90;;;;;;5051674;28;20490;-68
2022/08/10 05:17:39;;;;;;;8.60;7.70;;;18.10;99.90;;;;;;5083184;28;20044;-68
2022/08/10 05:20:27;;;;;;;8.88;7.72;;;18.20;99.90;;;;;;5048741;28;20116;-68
2022/08/10 05:22:54;;;;;;;8.82;7.75;;;18.30;99.90;;;;;;5061108;28;20082;-68
2022/08/10 05:25:22;;;;;;;8.63;7.80;;;18.40;99.90;;;;;;5056028;28;20037;-68
2022/08/10 05:27:49;;;;;;;8.48;7.63;;;18.40;99.90;;;;;;5060826;28;20047;-69
2022/08/10 05:30:20;;;;;;;9.55;7.40;;;18.50;99.90;;;;;;5074670;28;20516;-69
2022/08/10 05:32:48;;;;;;;7.50;6.80;;;18.50;99.90;;;;;;5060660;28;20159;-68
2022/08/10 05:35:24;;;;;;;7.78;6.97;;;18.60;99.90;;;;;;5080304;28;20540;-68
2022/08/10 05:37:52;;;;;;;9.05;7.47;;;18.70;99.90;;;;;;5068209;28;20522;-68
2022/08/10 05:40:41;;;;;;;9.45;7.10;;;18.70;99.90;;;;;;5068466;28;20062;-69
2022/08/10 05:43:18;;;;;;;8.32;7.10;;;18.80;99.90;;;;;;5066763;28;20041;-71
2022/08/10 05:45:46;;;;;;;10.73;7.10;;;18.90;99.90;;;;;;5064039;28;20576;-68
2022/08/10 05:48:36;;;;;;;7.93;7.20;;;19.00;99.90;;;;;;5056980;28;20041;-68
2022/08/10 05:51:24;;;;;;;11.75;7.70;;;19.10;99.90;;;;;;5050652;28;20646;-67
2022/08/10 05:53:52;;;;;;;7.45;6.75;;;19.10;99.90;;;;;;5056430;28;20124;-66
2022/08/10 05:56:36;;;;;;;8.52;7.50;;;19.10;99.90;;;;;;5054649;28;20518;-67
2022/08/10 05:59:28;;;;;;;7.43;6.72;;;19.20;99.90;;;;;;5053670;28;20385;-66
2022/08/10 06:02:30;;;;;;;7.63;6.80;;;19.30;99.90;;;;;;5055578;28;20040;-66
2022/08/10 06:05:12;;;;;;;7.85;6.63;;;19.40;99.90;;;;;;5062480;28;20098;-66
2022/08/10 06:07:46;;;;;;;7.75;6.95;;;19.50;99.90;;;;;;5053519;28;20045;-65
2022/08/10 06:10:16;;;;;;;8.32;7.00;;;19.70;99.90;;;;;;5052311;28;20606;-65
2022/08/10 06:15:55;;;;;;;8.40;6.90;;;20.00;99.90;;;;;;5054161;28;20056;-65
2022/08/10 06:18:23;;;;;;;8.70;7.20;;;20.20;99.90;;;;;;5062999;28;20092;-65
2022/08/10 06:20:51;;;;;;;7.30;6.70;;;20.50;99.90;;;;;;5066523;28;20457;-68
2022/08/10 06:23:19;;;;;;;9.48;7.03;;;20.60;99.90;;;;;;5066161;28;20084;-65
2022/08/10 06:25:47;;;;;;;7.88;7.07;;;20.80;99.90;;;;;;5066337;28;20409;-65
2022/08/10 06:28:37;;;;;;;8.30;7.50;;;20.90;99.90;;;;;;5064659;28;20043;-65
2022/08/10 06:31:06;;;;;;;8.20;7.50;;;21.00;99.90;;;;;;5069102;28;20056;-65
2022/08/10 06:33:37;;;;;;;8.02;7.22;;;21.20;99.90;;;;;;5067375;28;20052;-64
2022/08/10 06:36:07;;;;;;;8.43;7.63;;;21.20;99.90;;;;;;5067759;28;20071;-64
2022/08/10 06:38:37;;;;;;;9.70;8.15;;;21.20;99.90;;;;;;5053533;28;20074;-65
2022/08/10 06:41:14;;;;;;;10.48;7.63;;;21.20;99.90;;;;;;5082600;28;20064;-65
2022/08/10 06:43:55;;;;;;;7.22;6.60;;;21.30;99.90;;;;;;5082218;28;20085;-64
2022/08/10 06:46:25;;;;;;;9.27;6.97;;;21.20;99.90;;;;;;5085994;28;20040;-65
2022/08/10 06:49:00;;;;;;;10.18;7.22;;;21.30;99.90;;;;;;5087560;28;20070;-65
2022/08/10 06:51:33;;;;;;;7.70;6.93;;;21.30;99.90;;;;;;5075797;28;20567;-65
2022/08/10 06:54:05;;;;;;;7.25;6.65;;;21.40;99.90;;;;;;5072385;28;20083;-65
2022/08/10 06:56:40;;;;;;;8.23;7.38;;;21.40;99.90;;;;;;5074928;28;20070;-65
2022/08/10 06:59:41;;;;;;;7.35;6.57;;;21.50;99.90;;;;;;5065285;28;20347;-65
2022/08/10 07:02:12;;;;;;;12.15;6.35;;;21.60;99.90;;;;;;5080177;28;20044;-65
2022/08/10 07:04:44;;;;;;;7.30;6.55;;;21.70;99.90;;;;;;5057541;28;20043;-64
2022/08/10 07:07:14;;;;;;;;;;;21.70;99.90;;;;;;5060921;28;20498;-64
2022/08/10 07:09:44;;;;;;;7.20;6.43;;;21.70;99.90;;;;;;5065580;28;20034;-65
2022/08/10 07:12:13;;;;;;;7.05;6.35;;;21.80;99.90;;;;;;5064969;28;20044;-66
2022/08/10 07:14:44;;;;;;;9.63;6.65;;;21.90;99.90;;;;;;5065273;28;20123;-65
2022/08/10 07:17:15;;;;;;;7.47;6.60;;;22.00;99.90;;;;;;5079200;28;20491;-68
2022/08/10 07:19:46;;;;;;;8.20;6.60;;;22.00;99.90;;;;;;5076845;28;20060;-65
2022/08/10 07:22:21;;;;;;;8.40;6.55;;;22.10;99.90;;;;;;5062200;28;20289;-65
2022/08/10 07:25:11;;;;;;;9.02;6.90;;;22.10;99.90;;;;;;5058053;28;20051;-65
2022/08/10 07:27:40;;;;;;;10.20;7.15;;;22.20;99.90;;;;;;5072587;28;20043;-66
2022/08/10 07:30:36;;;;;;;7.68;6.90;;;22.30;99.90;;;;;;5066846;28;20400;-66
2022/08/10 07:33:05;;;;;;;10.45;7.30;;;22.40;99.90;;;;;;5071968;28;20046;-65
2022/08/10 07:35:35;;;;;;;9.98;7.50;;;22.50;99.90;;;;;;5057307;28;20041;-66
2022/08/10 07:38:18;;;;;;;8.40;7.15;;;22.60;99.90;;;;;;5078307;28;20067;-65
2022/08/10 07:40:48;;;;;;;9.43;6.88;;;22.70;99.90;;;;;;5069854;28;20074;-65
2022/08/10 07:43:19;;;;;;;9.18;6.75;;;22.80;99.90;;;;;;5065741;28;20523;-65
2022/08/10 07:45:48;;;;;;;7.88;7.07;;;22.90;99.90;;;;;;5087627;28;20072;-65
2022/08/10 07:48:21;;;;;;;7.30;6.60;;;22.90;99.90;;;;;;5082259;28;20508;-65
2022/08/10 07:50:54;;;;;;;7.20;6.50;;;23.00;99.90;;;;;;5070244;28;20051;-65
2022/08/10 07:53:25;;;;;;;8.40;6.90;;;23.10;99.90;;;;;;5070228;28;20036;-65
2022/08/10 07:55:54;;;;;;;;;;;23.20;99.90;;;;;;5067057;28;20048;-65
2022/08/10 07:58:44;;;;;;;7.50;6.90;;;23.20;99.90;;;;;;5069141;28;19927;-65
2022/08/10 08:01:23;;;;;;;7.47;6.70;;;23.40;99.90;;;;;;5069241;28;20154;-66
2022/08/10 08:03:51;;;;;;;7.78;6.38;;;23.50;99.90;;;;;;5059258;28;20055;-65
2022/08/10 08:06:39;;;;;;;6.93;6.32;;;23.60;99.90;;;;;;5079144;28;20494;-65
2022/08/10 08:09:08;;;;;;;9.75;6.80;;;23.60;99.90;;;;;;5087370;28;20486;-65
2022/08/10 08:11:38;;;;;;;7.68;6.22;;;23.80;99.90;;;;;;5077462;28;20120;-65
2022/08/10 08:14:08;;;;;;;7.68;6.45;;;23.90;99.90;;;;;;5079056;28;20044;-65
2022/08/10 08:16:38;;;;;;;7.15;6.38;;;24.00;99.90;;;;;;5086430;28;20129;-65
2022/08/10 08:19:06;;;;;;;8.88;6.30;;;24.00;99.60;;;;;;5073813;28;20382;-65
2022/08/10 08:21:54;;;;;;;10.57;7.90;;;24.10;99.40;;;;;;5063742;28;20451;-66
2022/08/10 08:24:43;;;;;;;9.38;8.02;;;24.30;99.10;;;;;;5074500;28;20061;-66
2022/08/10 08:27:18;;;;;;;7.35;6.50;;;24.40;98.80;;;;;;5067329;28;20068;-70
2022/08/10 08:29:48;;;;;;;7.22;6.50;;;24.50;98.30;;;;;;5075248;28;20052;-66
2022/08/10 08:32:18;;;;;;;6.70;6.00;;;24.60;97.80;;;;;;5064474;28;20072;-66
2022/08/10 08:34:48;;;;;;;8.75;7.00;;;24.70;97.20;;;;;;5074613;28;20172;-65
2022/08/10 08:37:18;;;;;;;8.23;7.38;;;24.70;96.80;;;;;;5082894;28;20074;-65
2022/08/10 08:40:10;;;;;;;9.18;6.72;;;24.90;96.30;;;;;;5075168;28;20147;-65
2022/08/10 08:43:10;;;;;;;7.22;6.30;;;25.00;96.00;;;;;;5075364;28;20379;-65
2022/08/10 08:46:27;;;;;;;6.70;6.10;;;25.10;95.70;;;;;;5084721;28;20032;-64
2022/08/10 08:49:00;;;;;;;6.85;6.20;;;25.20;94.80;;;;;;5083697;28;20037;-66
2022/08/10 08:51:30;;;;;;;7.35;6.07;;;25.40;94.00;;;;;;5073743;28;20535;-66
2022/08/10 08:54:35;;;;;;;7.65;6.97;;;25.50;93.20;;;;;;5059221;28;20118;-65
2022/08/10 08:57:07;;;;;;;9.65;6.72;;;25.50;93.10;;;;;;5071448;28;20045;-65
2022/08/10 08:59:40;;;;;;;;;;;25.60;92.80;;;;;;5062879;28;20033;-65
2022/08/10 09:02:45;;;;;;;7.53;6.13;;;25.70;92.10;;;;;;5066723;28;19921;-65
2022/08/10 09:05:59;;;;;;;8.10;6.63;;;25.70;91.30;;;;;;5055566;28;20399;-66
2022/08/10 09:09:01;;;;;;;6.53;5.65;;;25.90;91.20;;;;;;5012791;28;20052;-65
2022/08/10 09:11:44;;;;;;;6.03;5.43;;;25.90;91.10;;;;;;5006106;28;20046;-66
2022/08/10 09:14:14;;;;;;;6.15;5.55;;;26.10;91.20;;;;;;5006048;28;20554;-65
2022/08/10 09:17:13;;;;;;;6.10;5.30;;;26.20;90.00;;;;;;5006750;28;20050;-65
2022/08/10 09:19:54;;;;;;;8.77;5.65;;;26.30;89.20;;;;;;5005051;28;20151;-65
2022/08/10 09:22:56;;;;;;;7.10;6.43;;;26.30;88.60;;;;;;5006613;28;20057;-66
2022/08/10 09:25:31;;;;;;;8.38;7.05;;;26.50;88.30;;;;;;5006010;28;20594;-66
2022/08/10 09:28:10;;;;;;;9.75;7.38;;;26.40;88.80;;;;;;5007090;28;20077;-66
2022/08/10 09:30:43;;;;;;;8.25;7.32;;;26.40;88.80;;;;;;5006198;28;20523;-66
2022/08/10 09:33:48;;;;;;;6.80;6.10;;;26.40;86.90;;;;;;5005370;28;20065;-66
2022/08/10 09:36:56;;;;;;;6.40;5.82;;;26.40;86.60;;;;;;5005916;28;20042;-66
2022/08/10 09:39:34;;;;;;;7.07;5.70;;;26.70;86.00;;;;;;5048008;28;20048;-66
2022/08/10 09:42:48;;;;;;;8.57;6.28;;;26.90;85.60;;;;;;5062522;28;20036;-66
2022/08/10 09:45:50;;;;;;;7.00;6.30;;;27.20;84.00;;;;;;5066692;28;20040;-66
2022/08/10 09:48:31;;;;;;;7.15;6.43;;;27.60;83.60;;;;;;5055796;28;20052;-65
2022/08/10 09:51:33;;;;;;;7.60;6.90;;;27.80;82.30;;;;;;5064403;28;20042;-65
2022/08/10 09:54:30;;;;;;;7.25;6.35;;;27.90;80.60;;;;;;4951659;28;20047;-65
2022/08/10 09:57:23;;;;;;;6.80;6.10;;;27.90;79.80;;;;;;4953093;28;20561;-65
2022/08/10 10:00:16;;;;;;;9.35;6.13;;;27.90;78.50;;;;;;4946176;28;20058;-66
2022/08/10 10:03:05;;;;;;;7.10;6.40;;;27.80;78.50;;;;;;4958107;28;20505;-65
2022/08/10 10:05:54;;;;;;;10.43;6.75;;;27.80;76.10;;;;;;4948936;28;20055;-65
2022/08/10 10:08:37;;;;;;;8.27;6.45;;;27.70;75.40;;;;;;4965571;28;20086;-65
2022/08/10 10:11:15;;;;;;;6.85;6.25;;;27.70;76.00;;;;;;4969182;28;20117;-65
2022/08/10 10:14:11;;;;;;;7.10;6.40;;;27.60;75.80;;;;;;4959260;28;20589;-65
2022/08/10 10:17:06;;;;;;;6.35;5.85;;;27.90;75.00;;;;;;4957141;28;20074;-67
2022/08/10 10:19:43;;;;;;;6.93;6.30;;;28.60;72.30;;;;;;4942518;28;20039;-66
2022/08/10 10:22:31;;;;;;;6.50;5.90;;;28.60;70.70;;;;;;4955960;28;20075;-66
2022/08/10 10:25:01;;;;;;;7.22;6.63;;;28.60;70.20;;;;;;4949623;28;20113;-65
2022/08/10 10:28:25;;;;;;;7.25;6.57;;;28.60;70.10;;;;;;4953065;28;20055;-65
2022/08/10 10:31:30;;;;;;;10.55;6.10;;;28.40;70.30;;;;;;5007513;28;20071;-66
2022/08/10 10:34:10;;;;;;;6.93;6.00;;;28.70;69.70;;;;;;5060320;28;20036;-65
2022/08/10 10:36:40;;;;;;;6.78;6.10;;;29.00;67.50;;;;;;5064452;28;20045;-66
2022/08/10 10:39:11;;;;;;;7.00;6.30;;;29.20;67.10;;;;;;5059929;28;20079;-64
2022/08/10 10:41:48;;;;;;;8.20;6.37;;;29.90;67.70;;;;;;5061707;28;20037;-65
2022/08/10 10:44:53;;;;;;;7.82;6.40;;;30.30;67.70;;;;;;5067664;28;20067;-65
2022/08/10 10:47:36;;;;;;;6.82;6.32;;;30.10;66.10;;;;;;5076960;28;20477;-65
2022/08/10 10:50:30;;;;;;;8.48;6.20;;;29.90;66.10;;;;;;5059679;28;20423;-64
2022/08/10 10:53:20;;;;;;;7.30;6.57;;;29.70;65.30;;;;;;5052596;28;20041;-66
2022/08/10 10:55:55;;;;;;;6.60;6.00;;;29.80;64.50;;;;;;5058002;28;20049;-66
2022/08/10 10:59:19;;;;;;;7.18;6.20;;;30.00;64.40;;;;;;5053270;28;20053;-64
2022/08/10 11:02:18;;;;;;;6.75;5.90;;;30.70;63.50;;;;;;5051960;28;20029;-64
2022/08/10 11:05:30;;;;;;;10.52;6.05;;;31.30;61.20;;;;;;5046532;28;20052;-65
2022/08/10 11:08:23;;;;;;;6.50;5.90;;;31.30;59.60;;;;;;5049246;28;20128;-65
2022/08/10 11:11:18;;;;;;;10.60;6.25;;;31.50;60.40;;;;;;5059534;28;20044;-66
2022/08/10 11:14:27;;;;;;;6.97;5.97;;;31.20;60.30;;;;;;5060927;28;20102;-64
2022/08/10 11:17:14;;;;;;;8.70;6.40;;;30.70;60.40;;;;;;5051064;28;20041;-64
2022/08/10 11:19:50;;;;;;;6.63;6.03;;;30.60;60.10;;;;;;5073352;28;20100;-64
2022/08/10 11:22:34;;;;;;;8.52;6.30;;;30.70;60.00;;;;;;5065699;28;20483;-65
2022/08/10 11:25:20;;;;;;;7.10;5.55;;;30.60;60.10;;;;;;5055686;28;20052;-64
2022/08/10 11:28:07;;;;;;;8.02;5.97;;;31.00;59.80;;;;;;5065530;28;20635;-64
2022/08/10 11:30:59;;;;;;;8.00;5.47;;;31.30;58.90;;;;;;5050582;28;20155;-65
2022/08/10 11:33:46;;;;;;;10.68;5.82;;;32.10;57.80;;;;;;5058618;28;20322;-65
2022/08/10 11:36:58;;;;;;;6.95;5.95;;;32.60;56.70;;;;;;5058109;28;20487;-65
2022/08/10 11:39:56;;;;;;;6.20;5.60;;;33.30;55.80;;;;;;5076290;28;20569;-64
2022/08/10 11:42:35;;;;;;;7.03;5.70;;;33.30;55.30;;;;;;5069212;28;20409;-65
2022/08/10 11:45:12;;;;;;;7.75;6.13;;;33.70;54.40;;;;;;5060292;28;20065;-64
2022/08/10 11:48:20;;;;;;;7.35;6.05;;;33.90;53.80;;;;;;5051000;28;20036;-65
2022/08/10 11:51:20;;;;;;;7.85;6.20;;;33.60;53.50;;;;;;5007956;28;20210;-64
2022/08/10 11:54:18;;;;;;;6.93;6.10;;;33.20;54.80;;;;;;4989670;28;20057;-64
2022/08/10 11:56:49;;;;;;;6.43;5.93;;;33.00;53.50;;;;;;5007075;28;20056;-65
2022/08/10 12:02:10;;;;;;;6.40;5.80;;;33.50;52.80;;;;;;5006085;28;20041;-67
2022/08/10 12:04:40;;;;;;;6.67;5.80;;;34.10;52.30;;;;;;4996392;28;20052;-66
2022/08/10 12:07:08;;;;;;;7.30;6.20;;;34.80;51.80;;;;;;4992331;28;20295;-65
2022/08/10 12:09:57;;;;;;;6.70;5.80;;;34.90;51.20;;;;;;5006915;28;20050;-65
2022/08/10 12:12:49;;;;;;;6.47;5.82;;;35.30;50.70;;;;;;5005284;28;20140;-66
2022/08/10 12:15:26;;;;;;;6.47;5.95;;;35.30;50.30;;;;;;5004020;28;20050;-65
2022/08/10 12:18:00;;;;;;;6.47;5.88;;;35.60;49.90;;;;;;5009719;28;20118;-65
2022/08/10 12:20:35;;;;;;;7.43;5.60;;;35.40;49.60;;;;;;5014110;28;20046;-65
2022/08/10 12:23:33;;;;;;;6.68;6.07;;;35.70;49.40;;;;;;5000941;28;20056;-66
2022/08/10 12:26:27;;;;;;;7.57;6.30;;;35.90;49.50;;;;;;5079379;28;20939;-66
2022/08/10 12:29:05;;;;;;;6.70;6.10;;;36.40;48.60;;;;;;5071057;28;20525;-66
2022/08/10 12:32:09;;;;;;;11.02;6.50;;;36.70;48.40;;;;;;5087337;28;20056;-66
2022/08/10 12:34:43;;;;;;;7.47;6.85;;;36.90;48.20;;;;;;5037563;28;20072;-67
2022/08/10 12:37:49;;;;;;;7.18;6.45;;;37.00;48.20;;;;;;5068876;28;20040;-66
2022/08/10 12:40:27;;;;;;;7.20;6.45;;;37.00;47.70;;;;;;5077824;28;20094;-66
2022/08/10 12:43:12;;;;;;;6.95;6.30;;;37.50;47.60;;;;;;5061349;28;20553;-65
2022/08/10 12:46:27;;;;;;;8.93;6.78;;;37.60;47.10;;;;;;5067336;28;20372;-67
2022/08/10 12:49:39;;;;;;;7.30;6.60;;;37.50;46.70;;;;;;5052358;28;20049;-66
2022/08/10 12:52:36;;;;;;;8.60;6.25;;;37.40;46.80;;;;;;5082322;28;20589;-66
2022/08/10 12:55:06;;;;;;;6.57;6.07;;;37.60;46.20;;;;;;5055621;28;20059;-66
2022/08/10 12:57:35;;;;;;;6.40;5.90;;;37.70;45.90;;;;;;5071399;28;20510;-66
2022/08/10 13:00:05;;;;;;;6.97;5.88;;;38.10;45.80;;;;;;5071261;28;20135;-66
2022/08/10 13:02:45;;;;;;;7.15;6.38;;;38.60;45.50;;;;;;5059119;28;20044;-66
2022/08/10 13:05:16;;;;;;;6.93;6.28;;;38.50;45.50;;;;;;5053840;28;20044;-65
2022/08/10 13:07:45;;;;;;;6.72;6.10;;;38.50;45.20;;;;;;5074339;28;20046;-65
2022/08/10 13:10:42;;;;;;;7.20;6.50;;;38.40;44.80;;;;;;5061219;28;20036;-65
2022/08/10 13:13:14;;;;;;;6.50;6.00;;;38.90;44.40;;;;;;5055997;28;20072;-65
2022/08/10 13:15:45;;;;;;;6.53;5.93;;;39.00;44.20;;;;;;5051032;28;20430;-65
2022/08/10 13:18:39;;;;;;;7.80;5.90;;;39.20;43.60;;;;;;5055126;28;20124;-65
2022/08/10 13:21:10;;;;;;;6.30;5.80;;;40.00;43.20;;;;;;5058636;28;20394;-66
2022/08/10 13:23:54;;;;;;;7.20;6.13;;;40.30;43.00;;;;;;5054508;28;20049;-66
2022/08/10 13:26:38;;;;;;;7.00;6.30;;;40.20;42.90;;;;;;5050450;28;20041;-66
2022/08/10 13:29:30;;;;;;;6.20;5.60;;;40.20;42.60;;;;;;5055515;28;20716;-66
2022/08/10 13:32:03;;;;;;;6.47;5.93;;;40.40;42.10;;;;;;5054690;28;20094;-66
2022/08/10 13:34:45;;;;;;;6.75;6.03;;;40.40;41.60;;;;;;5048317;28;20519;-65
2022/08/10 13:37:15;;;;;;;6.80;6.10;;;40.70;41.40;;;;;;5050272;28;20076;-64
2022/08/10 13:39:46;;;;;;;6.25;5.53;;;40.70;41.30;;;;;;5051781;28;20135;-65
2022/08/10 13:42:35;;;;;;;7.03;5.18;;;41.30;40.90;;;;;;5051343;28;20140;-65
2022/08/10 13:45:16;;;;;;;5.85;5.20;;;42.00;40.30;;;;;;5056317;28;20045;-65
2022/08/10 13:47:47;;;;;;;7.93;7.18;;;43.00;39.90;;;;;;5053951;28;20828;-65
2022/08/10 13:50:28;;;;;;;7.45;5.55;;;43.80;39.10;;;;;;5055818;28;20110;-66
2022/08/10 13:53:11;;;;;;;7.10;6.50;;;44.70;38.30;;;;;;5057741;28;20525;-66
2022/08/10 13:55:53;;;;;;;6.33;5.60;;;45.50;37.30;;;;;;5054296;28;20467;-67
2022/08/10 13:58:32;;;;;;;7.93;5.97;;;45.80;36.90;;;;;;5055715;28;20409;-69